sensor_id;sensor_type;location;lat;lon;timestamp;P1;P2;P0
60245;PMS5003;46107;53.356;-1.524;2023-04-24T00:01:47;7;7;
60245;PMS5003;46107;53.356;-1.524;2023-04-24T00:04:15;10;7;
60245;PMS5003;46107;53.356;-1.524;2023-04-24T00:06:42;7;7;
60245;PMS5003;46107;53.356;-1.524;2023-04-24T00:09:10;5;4;
60245;PMS5003;46107;53.356;-1.524;2023-04-24T00:11:37;4;4;
60245;PMS5003;46107;53.356;-1.524;2023-04-24T00:14:05;6;4;
60245;PMS5003;46107;53.356;-1.524;2023-04-24T00:16:32;7;4;
60245;PMS5003;46107;53.356;-1.524;2023-04-24T00:19:00;7;5;
60245;PMS5003;46107;53.356;-1.524;2023-04-24T00:21:27;5;5;
60245;PMS5003;46107;53.356;-1.524;2023-04-24T00:23:57;8;5;
60245;PMS5003;46107;53.356;-1.524;2023-04-24T00:26:24;5;4;
60245;PMS5003;46107;53.356;-1.524;2023-04-24T00:28:51;3;3;
60245;PMS5003;46107;53.356;-1.524;2023-04-24T00:31:18;5;5;
60245;PMS5003;46107;53.356;-1.524;2023-04-24T00:33:46;6;4;
60245;PMS5003;46107;53.356;-1.524;2023-04-24T00:36:13;8;5;
60245;PMS5003;46107;53.356;-1.524;2023-04-24T00:38:41;6;6;
60245;PMS5003;46107;53.356;-1.524;2023-04-24T00:41:08;6;5;
60245;PMS5003;46107;53.356;-1.524;2023-04-24T00:43:36;5;4;
60245;PMS5003;46107;53.356;-1.524;2023-04-24T00:46:03;7;5;
60245;PMS5003;46107;53.356;-1.524;2023-04-24T00:48:31;6;6;
60245;PMS5003;46107;53.356;-1.524;2023-04-24T00:50:59;2;2;
60245;PMS5003;46107;53.356;-1.524;2023-04-24T00:53:27;4;4;
60245;PMS5003;46107;53.356;-1.524;2023-04-24T00:55:54;4;4;
60245;PMS5003;46107;53.356;-1.524;2023-04-24T00:58:24;5;5;
60245;PMS5003;46107;53.356;-1.524;2023-04-24T01:00:53;3;3;
60245;PMS5003;46107;53.356;-1.524;2023-04-24T01:03:22;4;3;
60245;PMS5003;46107;53.356;-1.524;2023-04-24T01:05:54;7;4;
60245;PMS5003;46107;53.356;-1.524;2023-04-24T01:08:24;4;4;
60245;PMS5003;46107;53.356;-1.524;2023-04-24T01:10:53;6;4;
60245;PMS5003;46107;53.356;-1.524;2023-04-24T01:13:21;7;5;
60245;PMS5003;46107;53.356;-1.524;2023-04-24T01:15:49;5;3;
60245;PMS5003;46107;53.356;-1.524;2023-04-24T01:18:16;4;4;
60245;PMS5003;46107;53.356;-1.524;2023-04-24T01:20:44;4;3;
60245;PMS5003;46107;53.356;-1.524;2023-04-24T01:23:12;6;5;
60245;PMS5003;46107;53.356;-1.524;2023-04-24T01:25:40;3;3;
60245;PMS5003;46107;53.356;-1.524;2023-04-24T01:28:07;4;4;
60245;PMS5003;46107;53.356;-1.524;2023-04-24T01:30:35;5;2;
60245;PMS5003;46107;53.356;-1.524;2023-04-24T01:33:03;6;4;
60245;PMS5003;46107;53.356;-1.524;2023-04-24T01:35:31;5;3;
60245;PMS5003;46107;53.356;-1.524;2023-04-24T01:37:59;5;5;
60245;PMS5003;46107;53.356;-1.524;2023-04-24T01:40:27;5;5;
60245;PMS5003;46107;53.356;-1.524;2023-04-24T01:42:54;4;3;
60245;PMS5003;46107;53.356;-1.524;2023-04-24T01:45:23;6;5;
60245;PMS5003;46107;53.356;-1.524;2023-04-24T01:47:51;6;3;
60245;PMS5003;46107;53.356;-1.524;2023-04-24T01:50:19;3;3;
60245;PMS5003;46107;53.356;-1.524;2023-04-24T01:52:46;4;4;
60245;PMS5003;46107;53.356;-1.524;2023-04-24T01:55:14;3;2;
60245;PMS5003;46107;53.356;-1.524;2023-04-24T01:57:41;6;4;
60245;PMS5003;46107;53.356;-1.524;2023-04-24T02:00:09;4;3;
60245;PMS5003;46107;53.356;-1.524;2023-04-24T02:02:37;6;5;
60245;PMS5003;46107;53.356;-1.524;2023-04-24T02:05:06;3;3;
60245;PMS5003;46107;53.356;-1.524;2023-04-24T02:07:35;2;2;
60245;PMS5003;46107;53.356;-1.524;2023-04-24T02:10:03;6;6;
60245;PMS5003;46107;53.356;-1.524;2023-04-24T02:12:32;6;5;
60245;PMS5003;46107;53.356;-1.524;2023-04-24T02:15:00;3;3;
60245;PMS5003;46107;53.356;-1.524;2023-04-24T02:17:28;3;3;
60245;PMS5003;46107;53.356;-1.524;2023-04-24T02:20:00;5;2;
60245;PMS5003;46107;53.356;-1.524;2023-04-24T02:22:28;2;2;
60245;PMS5003;46107;53.356;-1.524;2023-04-24T02:25:01;2;2;
60245;PMS5003;46107;53.356;-1.524;2023-04-24T02:27:29;4;4;
60245;PMS5003;46107;53.356;-1.524;2023-04-24T02:29:56;4;3;
60245;PMS5003;46107;53.356;-1.524;2023-04-24T02:32:24;2;2;
60245;PMS5003;46107;53.356;-1.524;2023-04-24T02:34:51;2;2;
60245;PMS5003;46107;53.356;-1.524;2023-04-24T02:37:19;4;4;
60245;PMS5003;46107;53.356;-1.524;2023-04-24T02:39:47;3;3;
60245;PMS5003;46107;53.356;-1.524;2023-04-24T02:42:14;5;3;
60245;PMS5003;46107;53.356;-1.524;2023-04-24T02:44:42;2;2;
60245;PMS5003;46107;53.356;-1.524;2023-04-24T02:47:09;5;5;
60245;PMS5003;46107;53.356;-1.524;2023-04-24T02:49:37;2;2;
60245;PMS5003;46107;53.356;-1.524;2023-04-24T02:52:04;7;4;
60245;PMS5003;46107;53.356;-1.524;2023-04-24T02:54:32;4;4;
60245;PMS5003;46107;53.356;-1.524;2023-04-24T02:56:59;4;3;
60245;PMS5003;46107;53.356;-1.524;2023-04-24T02:59:27;5;5;
60245;PMS5003;46107;53.356;-1.524;2023-04-24T03:01:54;4;3;
60245;PMS5003;46107;53.356;-1.524;2023-04-24T03:04:23;5;4;
60245;PMS5003;46107;53.356;-1.524;2023-04-24T03:06:50;3;3;
60245;PMS5003;46107;53.356;-1.524;2023-04-24T03:09:18;2;2;
60245;PMS5003;46107;53.356;-1.524;2023-04-24T03:11:46;2;2;
60245;PMS5003;46107;53.356;-1.524;2023-04-24T03:14:13;4;3;
60245;PMS5003;46107;53.356;-1.524;2023-04-24T03:16:41;3;3;
60245;PMS5003;46107;53.356;-1.524;2023-04-24T03:19:08;4;4;
60245;PMS5003;46107;53.356;-1.524;2023-04-24T03:21:36;4;4;
60245;PMS5003;46107;53.356;-1.524;2023-04-24T03:24:03;7;3;
60245;PMS5003;46107;53.356;-1.524;2023-04-24T03:26:31;3;3;
60245;PMS5003;46107;53.356;-1.524;2023-04-24T03:28:58;5;3;
60245;PMS5003;46107;53.356;-1.524;2023-04-24T03:31:26;6;3;
60245;PMS5003;46107;53.356;-1.524;2023-04-24T03:33:54;3;3;
60245;PMS5003;46107;53.356;-1.524;2023-04-24T03:36:23;3;3;
60245;PMS5003;46107;53.356;-1.524;2023-04-24T03:38:51;6;3;
60245;PMS5003;46107;53.356;-1.524;2023-04-24T03:41:19;9;6;
60245;PMS5003;46107;53.356;-1.524;2023-04-24T03:43:46;4;4;
60245;PMS5003;46107;53.356;-1.524;2023-04-24T03:46:15;4;3;
60245;PMS5003;46107;53.356;-1.524;2023-04-24T03:48:42;5;5;
60245;PMS5003;46107;53.356;-1.524;2023-04-24T03:51:10;3;2;
60245;PMS5003;46107;53.356;-1.524;2023-04-24T03:53:37;3;3;
60245;PMS5003;46107;53.356;-1.524;2023-04-24T03:56:04;2;2;
60245;PMS5003;46107;53.356;-1.524;2023-04-24T03:58:32;4;3;
60245;PMS5003;46107;53.356;-1.524;2023-04-24T04:01:00;4;4;
60245;PMS5003;46107;53.356;-1.524;2023-04-24T04:03:27;3;3;
60245;PMS5003;46107;53.356;-1.524;2023-04-24T04:05:55;5;3;
60245;PMS5003;46107;53.356;-1.524;2023-04-24T04:08:27;2;2;
60245;PMS5003;46107;53.356;-1.524;2023-04-24T04:10:57;2;2;
60245;PMS5003;46107;53.356;-1.524;2023-04-24T04:13:25;4;3;
60245;PMS5003;46107;53.356;-1.524;2023-04-24T04:15:52;4;4;
60245;PMS5003;46107;53.356;-1.524;2023-04-24T04:18:20;4;4;
60245;PMS5003;46107;53.356;-1.524;2023-04-24T04:20:47;4;4;
60245;PMS5003;46107;53.356;-1.524;2023-04-24T04:23:15;4;3;
60245;PMS5003;46107;53.356;-1.524;2023-04-24T04:25:43;5;2;
60245;PMS5003;46107;53.356;-1.524;2023-04-24T04:28:10;7;5;
60245;PMS5003;46107;53.356;-1.524;2023-04-24T04:30:38;3;3;
60245;PMS5003;46107;53.356;-1.524;2023-04-24T04:33:06;3;3;
60245;PMS5003;46107;53.356;-1.524;2023-04-24T04:35:34;7;5;
60245;PMS5003;46107;53.356;-1.524;2023-04-24T04:38:01;3;3;
60245;PMS5003;46107;53.356;-1.524;2023-04-24T04:40:28;5;3;
60245;PMS5003;46107;53.356;-1.524;2023-04-24T04:43:01;4;4;
60245;PMS5003;46107;53.356;-1.524;2023-04-24T04:45:28;5;4;
60245;PMS5003;46107;53.356;-1.524;2023-04-24T04:47:56;3;3;
60245;PMS5003;46107;53.356;-1.524;2023-04-24T04:50:23;6;5;
60245;PMS5003;46107;53.356;-1.524;2023-04-24T04:52:51;4;4;
60245;PMS5003;46107;53.356;-1.524;2023-04-24T04:55:19;8;5;
60245;PMS5003;46107;53.356;-1.524;2023-04-24T04:57:46;3;3;
60245;PMS5003;46107;53.356;-1.524;2023-04-24T05:00:14;2;2;
60245;PMS5003;46107;53.356;-1.524;2023-04-24T05:02:41;7;3;
60245;PMS5003;46107;53.356;-1.524;2023-04-24T05:05:09;5;5;
60245;PMS5003;46107;53.356;-1.524;2023-04-24T05:07:37;4;4;
60245;PMS5003;46107;53.356;-1.524;2023-04-24T05:10:05;3;3;
60245;PMS5003;46107;53.356;-1.524;2023-04-24T05:12:33;5;4;
60245;PMS5003;46107;53.356;-1.524;2023-04-24T05:15:00;5;3;
60245;PMS5003;46107;53.356;-1.524;2023-04-24T05:17:28;2;2;
60245;PMS5003;46107;53.356;-1.524;2023-04-24T05:19:57;4;4;
60245;PMS5003;46107;53.356;-1.524;2023-04-24T05:22:25;3;3;
60245;PMS5003;46107;53.356;-1.524;2023-04-24T05:24:52;7;4;
60245;PMS5003;46107;53.356;-1.524;2023-04-24T05:27:20;4;4;
60245;PMS5003;46107;53.356;-1.524;2023-04-24T05:29:47;3;3;
60245;PMS5003;46107;53.356;-1.524;2023-04-24T05:32:15;3;3;
60245;PMS5003;46107;53.356;-1.524;2023-04-24T05:34:42;6;3;
60245;PMS5003;46107;53.356;-1.524;2023-04-24T05:37:10;5;4;
60245;PMS5003;46107;53.356;-1.524;2023-04-24T05:39:37;4;3;
60245;PMS5003;46107;53.356;-1.524;2023-04-24T05:42:05;5;4;
60245;PMS5003;46107;53.356;-1.524;2023-04-24T05:44:32;4;4;
60245;PMS5003;46107;53.356;-1.524;2023-04-24T05:47:00;2;2;
60245;PMS5003;46107;53.356;-1.524;2023-04-24T05:49:27;2;2;
60245;PMS5003;46107;53.356;-1.524;2023-04-24T05:51:55;8;5;
60245;PMS5003;46107;53.356;-1.524;2023-04-24T05:54:27;5;5;
60245;PMS5003;46107;53.356;-1.524;2023-04-24T05:56:54;7;5;
60245;PMS5003;46107;53.356;-1.524;2023-04-24T05:59:24;4;4;
60245;PMS5003;46107;53.356;-1.524;2023-04-24T06:01:51;5;5;
60245;PMS5003;46107;53.356;-1.524;2023-04-24T06:04:19;4;4;
60245;PMS5003;46107;53.356;-1.524;2023-04-24T06:06:47;4;4;
60245;PMS5003;46107;53.356;-1.524;2023-04-24T06:09:14;8;6;
60245;PMS5003;46107;53.356;-1.524;2023-04-24T06:11:42;5;4;
60245;PMS5003;46107;53.356;-1.524;2023-04-24T06:14:09;3;3;
60245;PMS5003;46107;53.356;-1.524;2023-04-24T06:16:36;7;6;
60245;PMS5003;46107;53.356;-1.524;2023-04-24T06:19:04;7;6;
60245;PMS5003;46107;53.356;-1.524;2023-04-24T06:21:31;6;6;
60245;PMS5003;46107;53.356;-1.524;2023-04-24T06:23:59;5;3;
60245;PMS5003;46107;53.356;-1.524;2023-04-24T06:26:26;3;3;
60245;PMS5003;46107;53.356;-1.524;2023-04-24T06:28:53;4;4;
60245;PMS5003;46107;53.356;-1.524;2023-04-24T06:31:21;4;4;
60245;PMS5003;46107;53.356;-1.524;2023-04-24T06:33:48;4;4;
60245;PMS5003;46107;53.356;-1.524;2023-04-24T06:36:16;7;5;
60245;PMS5003;46107;53.356;-1.524;2023-04-24T06:38:43;9;5;
60245;PMS5003;46107;53.356;-1.524;2023-04-24T06:41:11;6;6;
60245;PMS5003;46107;53.356;-1.524;2023-04-24T06:43:39;7;5;
60245;PMS5003;46107;53.356;-1.524;2023-04-24T06:46:06;7;6;
60245;PMS5003;46107;53.356;-1.524;2023-04-24T06:48:34;5;5;
60245;PMS5003;46107;53.356;-1.524;2023-04-24T06:51:02;6;6;
60245;PMS5003;46107;53.356;-1.524;2023-04-24T06:53:30;5;4;
60245;PMS5003;46107;53.356;-1.524;2023-04-24T06:55:58;6;6;
60245;PMS5003;46107;53.356;-1.524;2023-04-24T06:58:25;9;6;
60245;PMS5003;46107;53.356;-1.524;2023-04-24T07:00:53;10;4;
60245;PMS5003;46107;53.356;-1.524;2023-04-24T07:03:20;5;5;
60245;PMS5003;46107;53.356;-1.524;2023-04-24T07:05:48;9;7;
60245;PMS5003;46107;53.356;-1.524;2023-04-24T07:08:16;8;7;
60245;PMS5003;46107;53.356;-1.524;2023-04-24T07:10:44;6;6;
60245;PMS5003;46107;53.356;-1.524;2023-04-24T07:13:12;6;6;
60245;PMS5003;46107;53.356;-1.524;2023-04-24T07:15:39;7;7;
60245;PMS5003;46107;53.356;-1.524;2023-04-24T07:18:07;10;7;
60245;PMS5003;46107;53.356;-1.524;2023-04-24T07:20:34;12;10;
60245;PMS5003;46107;53.356;-1.524;2023-04-24T07:23:02;8;7;
60245;PMS5003;46107;53.356;-1.524;2023-04-24T07:25:29;12;8;
60245;PMS5003;46107;53.356;-1.524;2023-04-24T07:27:57;8;8;
60245;PMS5003;46107;53.356;-1.524;2023-04-24T07:30:24;7;6;
60245;PMS5003;46107;53.356;-1.524;2023-04-24T07:32:52;9;8;
60245;PMS5003;46107;53.356;-1.524;2023-04-24T07:35:19;5;5;
60245;PMS5003;46107;53.356;-1.524;2023-04-24T07:37:47;8;7;
60245;PMS5003;46107;53.356;-1.524;2023-04-24T07:40:14;8;7;
60245;PMS5003;46107;53.356;-1.524;2023-04-24T07:42:42;7;7;
60245;PMS5003;46107;53.356;-1.524;2023-04-24T07:45:10;6;5;
60245;PMS5003;46107;53.356;-1.524;2023-04-24T07:47:37;7;7;
60245;PMS5003;46107;53.356;-1.524;2023-04-24T07:50:05;8;5;
60245;PMS5003;46107;53.356;-1.524;2023-04-24T07:52:33;6;6;
60245;PMS5003;46107;53.356;-1.524;2023-04-24T07:55:00;9;7;
60245;PMS5003;46107;53.356;-1.524;2023-04-24T07:57:28;11;8;
60245;PMS5003;46107;53.356;-1.524;2023-04-24T07:59:56;8;7;
60245;PMS5003;46107;53.356;-1.524;2023-04-24T08:02:24;6;5;
60245;PMS5003;46107;53.356;-1.524;2023-04-24T08:04:51;12;9;
60245;PMS5003;46107;53.356;-1.524;2023-04-24T08:07:24;10;6;
60245;PMS5003;46107;53.356;-1.524;2023-04-24T08:09:57;9;6;
60245;PMS5003;46107;53.356;-1.524;2023-04-24T08:12:25;6;4;
60245;PMS5003;46107;53.356;-1.524;2023-04-24T08:15:01;9;8;
60245;PMS5003;46107;53.356;-1.524;2023-04-24T08:17:30;9;8;
60245;PMS5003;46107;53.356;-1.524;2023-04-24T08:19:58;6;6;
60245;PMS5003;46107;53.356;-1.524;2023-04-24T08:22:25;7;6;
60245;PMS5003;46107;53.356;-1.524;2023-04-24T08:25:04;12;9;
60245;PMS5003;46107;53.356;-1.524;2023-04-24T08:27:49;8;8;
60245;PMS5003;46107;53.356;-1.524;2023-04-24T08:30:18;9;7;
60245;PMS5003;46107;53.356;-1.524;2023-04-24T08:33:01;6;6;
60245;PMS5003;46107;53.356;-1.524;2023-04-24T08:35:29;10;6;
60245;PMS5003;46107;53.356;-1.524;2023-04-24T08:38:02;10;7;
60245;PMS5003;46107;53.356;-1.524;2023-04-24T08:40:29;10;7;
60245;PMS5003;46107;53.356;-1.524;2023-04-24T08:43:00;7;7;
60245;PMS5003;46107;53.356;-1.524;2023-04-24T08:45:28;8;8;
60245;PMS5003;46107;53.356;-1.524;2023-04-24T08:47:57;9;8;
60245;PMS5003;46107;53.356;-1.524;2023-04-24T08:50:24;11;9;
60245;PMS5003;46107;53.356;-1.524;2023-04-24T08:52:52;9;6;
60245;PMS5003;46107;53.356;-1.524;2023-04-24T08:55:20;7;7;
60245;PMS5003;46107;53.356;-1.524;2023-04-24T08:57:50;11;8;
60245;PMS5003;46107;53.356;-1.524;2023-04-24T09:00:20;6;5;
60245;PMS5003;46107;53.356;-1.524;2023-04-24T09:02:49;9;7;
60245;PMS5003;46107;53.356;-1.524;2023-04-24T09:05:17;8;7;
60245;PMS5003;46107;53.356;-1.524;2023-04-24T09:07:45;10;8;
60245;PMS5003;46107;53.356;-1.524;2023-04-24T09:10:21;13;8;
60245;PMS5003;46107;53.356;-1.524;2023-04-24T09:12:50;8;6;
60245;PMS5003;46107;53.356;-1.524;2023-04-24T09:15:18;9;7;
60245;PMS5003;46107;53.356;-1.524;2023-04-24T09:17:46;10;9;
60245;PMS5003;46107;53.356;-1.524;2023-04-24T09:20:13;10;8;
60245;PMS5003;46107;53.356;-1.524;2023-04-24T09:22:41;10;8;
60245;PMS5003;46107;53.356;-1.524;2023-04-24T09:25:09;7;6;
60245;PMS5003;46107;53.356;-1.524;2023-04-24T09:27:38;8;6;
60245;PMS5003;46107;53.356;-1.524;2023-04-24T09:30:09;10;7;
60245;PMS5003;46107;53.356;-1.524;2023-04-24T09:32:38;11;11;
60245;PMS5003;46107;53.356;-1.524;2023-04-24T09:35:07;7;7;
60245;PMS5003;46107;53.356;-1.524;2023-04-24T09:37:38;8;8;
60245;PMS5003;46107;53.356;-1.524;2023-04-24T09:40:08;8;8;
60245;PMS5003;46107;53.356;-1.524;2023-04-24T09:42:36;7;7;
60245;PMS5003;46107;53.356;-1.524;2023-04-24T09:45:04;10;8;
60245;PMS5003;46107;53.356;-1.524;2023-04-24T09:47:36;6;6;
60245;PMS5003;46107;53.356;-1.524;2023-04-24T09:50:19;9;7;
60245;PMS5003;46107;53.356;-1.524;2023-04-24T09:52:56;9;8;
60245;PMS5003;46107;53.356;-1.524;2023-04-24T09:55:25;8;7;
60245;PMS5003;46107;53.356;-1.524;2023-04-24T09:57:54;9;8;
60245;PMS5003;46107;53.356;-1.524;2023-04-24T10:00:29;9;9;
60245;PMS5003;46107;53.356;-1.524;2023-04-24T10:02:57;10;8;
60245;PMS5003;46107;53.356;-1.524;2023-04-24T10:05:28;10;9;
60245;PMS5003;46107;53.356;-1.524;2023-04-24T10:07:57;10;8;
60245;PMS5003;46107;53.356;-1.524;2023-04-24T10:10:27;14;11;
60245;PMS5003;46107;53.356;-1.524;2023-04-24T10:13:15;8;7;
60245;PMS5003;46107;53.356;-1.524;2023-04-24T10:15:55;11;9;
60245;PMS5003;46107;53.356;-1.524;2023-04-24T10:18:27;9;9;
60245;PMS5003;46107;53.356;-1.524;2023-04-24T10:21:18;9;9;
60245;PMS5003;46107;53.356;-1.524;2023-04-24T10:23:56;9;7;
60245;PMS5003;46107;53.356;-1.524;2023-04-24T10:27:12;8;8;
60245;PMS5003;46107;53.356;-1.524;2023-04-24T10:29:40;7;6;
60245;PMS5003;46107;53.356;-1.524;2023-04-24T10:32:09;8;7;
60245;PMS5003;46107;53.356;-1.524;2023-04-24T10:34:36;13;11;
60245;PMS5003;46107;53.356;-1.524;2023-04-24T10:37:04;8;8;
60245;PMS5003;46107;53.356;-1.524;2023-04-24T10:39:32;8;7;
60245;PMS5003;46107;53.356;-1.524;2023-04-24T10:42:00;8;7;
60245;PMS5003;46107;53.356;-1.524;2023-04-24T10:44:31;8;7;
60245;PMS5003;46107;53.356;-1.524;2023-04-24T10:50:23;5;5;
60245;PMS5003;46107;53.356;-1.524;2023-04-24T10:52:51;6;6;
60245;PMS5003;46107;53.356;-1.524;2023-04-24T10:55:39;9;8;
60245;PMS5003;46107;53.356;-1.524;2023-04-24T10:58:08;8;8;
60245;PMS5003;46107;53.356;-1.524;2023-04-24T11:00:36;7;5;
60245;PMS5003;46107;53.356;-1.524;2023-04-24T11:03:05;13;10;
60245;PMS5003;46107;53.356;-1.524;2023-04-24T11:05:50;8;7;
60245;PMS5003;46107;53.356;-1.524;2023-04-24T11:08:21;7;7;
60245;PMS5003;46107;53.356;-1.524;2023-04-24T11:10:55;9;8;
60245;PMS5003;46107;53.356;-1.524;2023-04-24T11:13:27;6;6;
60245;PMS5003;46107;53.356;-1.524;2023-04-24T11:16:29;8;6;
60245;PMS5003;46107;53.356;-1.524;2023-04-24T11:19:00;6;6;
60245;PMS5003;46107;53.356;-1.524;2023-04-24T11:21:31;6;6;
60245;PMS5003;46107;53.356;-1.524;2023-04-24T11:24:09;7;7;
60245;PMS5003;46107;53.356;-1.524;2023-04-24T11:26:51;9;9;
60245;PMS5003;46107;53.356;-1.524;2023-04-24T11:29:19;8;8;
60245;PMS5003;46107;53.356;-1.524;2023-04-24T11:31:48;8;6;
60245;PMS5003;46107;53.356;-1.524;2023-04-24T11:34:15;9;7;
60245;PMS5003;46107;53.356;-1.524;2023-04-24T11:36:44;6;5;
60245;PMS5003;46107;53.356;-1.524;2023-04-24T11:39:12;10;8;
60245;PMS5003;46107;53.356;-1.524;2023-04-24T11:41:40;9;9;
60245;PMS5003;46107;53.356;-1.524;2023-04-24T11:44:08;7;7;
60245;PMS5003;46107;53.356;-1.524;2023-04-24T11:46:36;8;8;
60245;PMS5003;46107;53.356;-1.524;2023-04-24T11:49:04;12;11;
60245;PMS5003;46107;53.356;-1.524;2023-04-24T11:51:31;8;8;
60245;PMS5003;46107;53.356;-1.524;2023-04-24T11:53:59;7;7;
60245;PMS5003;46107;53.356;-1.524;2023-04-24T11:56:32;9;8;
60245;PMS5003;46107;53.356;-1.524;2023-04-24T11:59:00;7;6;
60245;PMS5003;46107;53.356;-1.524;2023-04-24T12:01:42;7;6;
60245;PMS5003;46107;53.356;-1.524;2023-04-24T12:04:10;9;9;
60245;PMS5003;46107;53.356;-1.524;2023-04-24T12:06:38;10;8;
60245;PMS5003;46107;53.356;-1.524;2023-04-24T12:09:06;5;5;
60245;PMS5003;46107;53.356;-1.524;2023-04-24T12:11:36;7;7;
60245;PMS5003;46107;53.356;-1.524;2023-04-24T12:14:18;6;6;
60245;PMS5003;46107;53.356;-1.524;2023-04-24T12:16:47;7;6;
60245;PMS5003;46107;53.356;-1.524;2023-04-24T12:19:17;5;5;
60245;PMS5003;46107;53.356;-1.524;2023-04-24T12:21:58;10;5;
60245;PMS5003;46107;53.356;-1.524;2023-04-24T12:24:26;10;9;
60245;PMS5003;46107;53.356;-1.524;2023-04-24T12:26:54;7;6;
60245;PMS5003;46107;53.356;-1.524;2023-04-24T12:29:21;6;6;
60245;PMS5003;46107;53.356;-1.524;2023-04-24T12:31:49;7;4;
60245;PMS5003;46107;53.356;-1.524;2023-04-24T12:34:18;5;4;
60245;PMS5003;46107;53.356;-1.524;2023-04-24T12:36:46;7;5;
60245;PMS5003;46107;53.356;-1.524;2023-04-24T12:39:15;5;4;
60245;PMS5003;46107;53.356;-1.524;2023-04-24T12:41:50;8;4;
60245;PMS5003;46107;53.356;-1.524;2023-04-24T12:44:28;6;5;
60245;PMS5003;46107;53.356;-1.524;2023-04-24T12:46:58;7;6;
60245;PMS5003;46107;53.356;-1.524;2023-04-24T12:49:25;9;8;
60245;PMS5003;46107;53.356;-1.524;2023-04-24T12:51:53;7;7;
60245;PMS5003;46107;53.356;-1.524;2023-04-24T12:54:21;6;6;
60245;PMS5003;46107;53.356;-1.524;2023-04-24T12:56:49;6;6;
60245;PMS5003;46107;53.356;-1.524;2023-04-24T12:59:17;6;5;
60245;PMS5003;46107;53.356;-1.524;2023-04-24T13:01:44;10;7;
60245;PMS5003;46107;53.356;-1.524;2023-04-24T13:04:12;5;5;
60245;PMS5003;46107;53.356;-1.524;2023-04-24T13:06:39;9;6;
60245;PMS5003;46107;53.356;-1.524;2023-04-24T13:09:07;8;7;
60245;PMS5003;46107;53.356;-1.524;2023-04-24T13:11:34;8;6;
60245;PMS5003;46107;53.356;-1.524;2023-04-24T13:14:01;5;5;
60245;PMS5003;46107;53.356;-1.524;2023-04-24T13:16:29;7;5;
60245;PMS5003;46107;53.356;-1.524;2023-04-24T13:18:57;4;4;
60245;PMS5003;46107;53.356;-1.524;2023-04-24T13:21:25;5;5;
60245;PMS5003;46107;53.356;-1.524;2023-04-24T13:23:52;6;6;
60245;PMS5003;46107;53.356;-1.524;2023-04-24T13:26:20;4;4;
60245;PMS5003;46107;53.356;-1.524;2023-04-24T13:28:48;7;6;
60245;PMS5003;46107;53.356;-1.524;2023-04-24T13:31:22;5;5;
60245;PMS5003;46107;53.356;-1.524;2023-04-24T13:33:55;5;4;
60245;PMS5003;46107;53.356;-1.524;2023-04-24T13:36:24;6;3;
60245;PMS5003;46107;53.356;-1.524;2023-04-24T13:38:52;9;6;
60245;PMS5003;46107;53.356;-1.524;2023-04-24T13:41:19;10;6;
60245;PMS5003;46107;53.356;-1.524;2023-04-24T13:43:47;5;5;
60245;PMS5003;46107;53.356;-1.524;2023-04-24T13:46:15;12;9;
60245;PMS5003;46107;53.356;-1.524;2023-04-24T13:48:43;9;7;
60245;PMS5003;46107;53.356;-1.524;2023-04-24T13:51:11;6;6;
60245;PMS5003;46107;53.356;-1.524;2023-04-24T13:53:39;7;7;
60245;PMS5003;46107;53.356;-1.524;2023-04-24T13:56:06;6;6;
60245;PMS5003;46107;53.356;-1.524;2023-04-24T13:58:34;11;8;
60245;PMS5003;46107;53.356;-1.524;2023-04-24T14:01:02;8;8;
60245;PMS5003;46107;53.356;-1.524;2023-04-24T14:03:30;13;10;
60245;PMS5003;46107;53.356;-1.524;2023-04-24T14:06:35;5;5;
60245;PMS5003;46107;53.356;-1.524;2023-04-24T14:09:04;7;5;
60245;PMS5003;46107;53.356;-1.524;2023-04-24T14:11:32;6;6;
60245;PMS5003;46107;53.356;-1.524;2023-04-24T14:14:00;12;9;
60245;PMS5003;46107;53.356;-1.524;2023-04-24T14:16:28;7;6;
60245;PMS5003;46107;53.356;-1.524;2023-04-24T14:18:56;8;7;
60245;PMS5003;46107;53.356;-1.524;2023-04-24T14:21:24;12;6;
60245;PMS5003;46107;53.356;-1.524;2023-04-24T14:23:52;10;8;
60245;PMS5003;46107;53.356;-1.524;2023-04-24T14:26:20;6;6;
60245;PMS5003;46107;53.356;-1.524;2023-04-24T14:28:48;13;8;
60245;PMS5003;46107;53.356;-1.524;2023-04-24T14:31:15;18;11;
60245;PMS5003;46107;53.356;-1.524;2023-04-24T14:33:43;10;8;
60245;PMS5003;46107;53.356;-1.524;2023-04-24T14:36:10;8;8;
60245;PMS5003;46107;53.356;-1.524;2023-04-24T14:38:37;15;11;
60245;PMS5003;46107;53.356;-1.524;2023-04-24T14:41:05;10;8;
60245;PMS5003;46107;53.356;-1.524;2023-04-24T14:43:39;6;6;
60245;PMS5003;46107;53.356;-1.524;2023-04-24T14:46:06;10;7;
60245;PMS5003;46107;53.356;-1.524;2023-04-24T14:48:34;10;7;
60245;PMS5003;46107;53.356;-1.524;2023-04-24T14:51:02;7;6;
60245;PMS5003;46107;53.356;-1.524;2023-04-24T14:53:29;7;5;
60245;PMS5003;46107;53.356;-1.524;2023-04-24T14:55:57;7;4;
60245;PMS5003;46107;53.356;-1.524;2023-04-24T14:58:25;8;6;
60245;PMS5003;46107;53.356;-1.524;2023-04-24T15:00:53;6;6;
60245;PMS5003;46107;53.356;-1.524;2023-04-24T15:03:20;8;6;
60245;PMS5003;46107;53.356;-1.524;2023-04-24T15:05:48;6;4;
60245;PMS5003;46107;53.356;-1.524;2023-04-24T15:08:16;4;4;
60245;PMS5003;46107;53.356;-1.524;2023-04-24T15:10:44;5;5;
60245;PMS5003;46107;53.356;-1.524;2023-04-24T15:13:11;4;4;
60245;PMS5003;46107;53.356;-1.524;2023-04-24T15:15:39;6;6;
60245;PMS5003;46107;53.356;-1.524;2023-04-24T15:18:07;8;6;
60245;PMS5003;46107;53.356;-1.524;2023-04-24T15:20:35;6;5;
60245;PMS5003;46107;53.356;-1.524;2023-04-24T15:23:03;6;5;
60245;PMS5003;46107;53.356;-1.524;2023-04-24T15:25:30;10;8;
60245;PMS5003;46107;53.356;-1.524;2023-04-24T15:27:58;5;5;
60245;PMS5003;46107;53.356;-1.524;2023-04-24T15:30:25;5;5;
60245;PMS5003;46107;53.356;-1.524;2023-04-24T15:32:53;9;8;
60245;PMS5003;46107;53.356;-1.524;2023-04-24T15:35:21;7;6;
60245;PMS5003;46107;53.356;-1.524;2023-04-24T15:37:49;8;5;
60245;PMS5003;46107;53.356;-1.524;2023-04-24T15:40:16;7;7;
60245;PMS5003;46107;53.356;-1.524;2023-04-24T15:42:44;7;6;
60245;PMS5003;46107;53.356;-1.524;2023-04-24T15:45:12;8;6;
60245;PMS5003;46107;53.356;-1.524;2023-04-24T15:47:40;8;8;
60245;PMS5003;46107;53.356;-1.524;2023-04-24T15:50:07;9;7;
60245;PMS5003;46107;53.356;-1.524;2023-04-24T15:52:35;9;8;
60245;PMS5003;46107;53.356;-1.524;2023-04-24T15:55:03;8;7;
60245;PMS5003;46107;53.356;-1.524;2023-04-24T15:57:30;8;8;
60245;PMS5003;46107;53.356;-1.524;2023-04-24T15:59:58;7;6;
60245;PMS5003;46107;53.356;-1.524;2023-04-24T16:02:26;8;6;
60245;PMS5003;46107;53.356;-1.524;2023-04-24T16:04:53;8;6;
60245;PMS5003;46107;53.356;-1.524;2023-04-24T16:07:26;10;9;
60245;PMS5003;46107;53.356;-1.524;2023-04-24T16:09:54;11;9;
60245;PMS5003;46107;53.356;-1.524;2023-04-24T16:12:21;17;8;
60245;PMS5003;46107;53.356;-1.524;2023-04-24T16:14:49;11;8;
60245;PMS5003;46107;53.356;-1.524;2023-04-24T16:17:16;9;8;
60245;PMS5003;46107;53.356;-1.524;2023-04-24T16:19:43;9;7;
60245;PMS5003;46107;53.356;-1.524;2023-04-24T16:22:11;9;9;
60245;PMS5003;46107;53.356;-1.524;2023-04-24T16:24:38;11;8;
60245;PMS5003;46107;53.356;-1.524;2023-04-24T16:27:06;9;7;
60245;PMS5003;46107;53.356;-1.524;2023-04-24T16:29:33;8;7;
60245;PMS5003;46107;53.356;-1.524;2023-04-24T16:32:01;10;8;
60245;PMS5003;46107;53.356;-1.524;2023-04-24T16:34:29;12;9;
60245;PMS5003;46107;53.356;-1.524;2023-04-24T16:36:57;8;7;
60245;PMS5003;46107;53.356;-1.524;2023-04-24T16:39:24;7;6;
60245;PMS5003;46107;53.356;-1.524;2023-04-24T16:41:52;10;7;
60245;PMS5003;46107;53.356;-1.524;2023-04-24T16:44:20;11;10;
60245;PMS5003;46107;53.356;-1.524;2023-04-24T16:46:48;6;6;